sensor_id;sensor_type;location;lat;lon;timestamp;P1;durP1;ratioP1;P2;durP2;ratioP2
15104;SDS011;7653;48.994;9.212;2023-08-17T00:00:14;6.97;;;6.20;;
15104;SDS011;7653;48.994;9.212;2023-08-17T00:02:42;6.97;;;5.70;;
15104;SDS011;7653;48.994;9.212;2023-08-17T00:05:08;7.77;;;5.63;;
15104;SDS011;7653;48.994;9.212;2023-08-17T00:07:34;8.47;;;5.83;;
15104;SDS011;7653;48.994;9.212;2023-08-17T00:10:01;7.37;;;6.53;;
15104;SDS011;7653;48.994;9.212;2023-08-17T00:12:27;6.37;;;5.77;;
15104;SDS011;7653;48.994;9.212;2023-08-17T00:14:53;6.27;;;5.60;;
15104;SDS011;7653;48.994;9.212;2023-08-17T00:17:19;6.60;;;5.80;;
15104;SDS011;7653;48.994;9.212;2023-08-17T00:19:45;6.37;;;5.77;;
15104;SDS011;7653;48.994;9.212;2023-08-17T00:22:12;8.23;;;5.90;;
15104;SDS011;7653;48.994;9.212;2023-08-17T00:24:38;6.57;;;5.93;;
15104;SDS011;7653;48.994;9.212;2023-08-17T00:27:03;5.93;;;5.33;;
15104;SDS011;7653;48.994;9.212;2023-08-17T00:29:29;6.43;;;5.30;;
15104;SDS011;7653;48.994;9.212;2023-08-17T00:31:55;6.23;;;5.63;;
15104;SDS011;7653;48.994;9.212;2023-08-17T00:34:21;6.20;;;5.57;;
15104;SDS011;7653;48.994;9.212;2023-08-17T00:36:46;6.80;;;5.87;;
15104;SDS011;7653;48.994;9.212;2023-08-17T00:39:12;6.47;;;5.77;;
15104;SDS011;7653;48.994;9.212;2023-08-17T00:41:39;7.00;;;5.70;;
15104;SDS011;7653;48.994;9.212;2023-08-17T00:44:05;7.17;;;6.40;;
15104;SDS011;7653;48.994;9.212;2023-08-17T00:46:31;9.17;;;6.90;;
15104;SDS011;7653;48.994;9.212;2023-08-17T00:48:57;7.13;;;6.20;;
15104;SDS011;7653;48.994;9.212;2023-08-17T00:51:23;6.77;;;6.17;;
15104;SDS011;7653;48.994;9.212;2023-08-17T00:53:53;6.40;;;5.80;;
15104;SDS011;7653;48.994;9.212;2023-08-17T00:56:22;7.20;;;6.07;;
15104;SDS011;7653;48.994;9.212;2023-08-17T00:58:48;8.47;;;5.80;;
15104;SDS011;7653;48.994;9.212;2023-08-17T01:01:14;7.80;;;6.40;;
15104;SDS011;7653;48.994;9.212;2023-08-17T01:03:40;9.30;;;6.87;;
15104;SDS011;7653;48.994;9.212;2023-08-17T01:06:07;8.27;;;6.70;;
15104;SDS011;7653;48.994;9.212;2023-08-17T01:08:33;9.27;;;6.57;;
15104;SDS011;7653;48.994;9.212;2023-08-17T01:11:02;7.33;;;6.53;;
15104;SDS011;7653;48.994;9.212;2023-08-17T01:16:04;6.10;;;5.50;;
15104;SDS011;7653;48.994;9.212;2023-08-17T01:18:34;9.57;;;6.37;;
15104;SDS011;7653;48.994;9.212;2023-08-17T01:21:02;7.80;;;6.57;;
15104;SDS011;7653;48.994;9.212;2023-08-17T01:23:30;9.57;;;6.27;;
15104;SDS011;7653;48.994;9.212;2023-08-17T01:25:56;9.40;;;6.90;;
15104;SDS011;7653;48.994;9.212;2023-08-17T01:28:22;9.63;;;6.97;;
15104;SDS011;7653;48.994;9.212;2023-08-17T01:33:29;9.07;;;6.87;;
15104;SDS011;7653;48.994;9.212;2023-08-17T01:38:33;8.00;;;6.53;;
15104;SDS011;7653;48.994;9.212;2023-08-17T01:41:00;7.60;;;6.90;;
15104;SDS011;7653;48.994;9.212;2023-08-17T01:43:27;7.70;;;6.90;;
15104;SDS011;7653;48.994;9.212;2023-08-17T01:45:54;7.47;;;6.40;;
15104;SDS011;7653;48.994;9.212;2023-08-17T01:48:19;8.30;;;6.80;;
15104;SDS011;7653;48.994;9.212;2023-08-17T01:50:45;8.50;;;6.50;;
15104;SDS011;7653;48.994;9.212;2023-08-17T01:53:11;7.83;;;6.73;;
15104;SDS011;7653;48.994;9.212;2023-08-17T01:55:37;7.60;;;6.80;;
15104;SDS011;7653;48.994;9.212;2023-08-17T01:58:03;8.27;;;6.50;;
15104;SDS011;7653;48.994;9.212;2023-08-17T02:00:29;10.40;;;6.70;;
15104;SDS011;7653;48.994;9.212;2023-08-17T02:02:55;7.10;;;6.37;;
15104;SDS011;7653;48.994;9.212;2023-08-17T02:05:20;8.03;;;6.10;;
15104;SDS011;7653;48.994;9.212;2023-08-17T02:07:46;8.77;;;6.73;;
15104;SDS011;7653;48.994;9.212;2023-08-17T02:10:12;8.30;;;6.67;;
15104;SDS011;7653;48.994;9.212;2023-08-17T02:12:37;8.93;;;7.13;;
15104;SDS011;7653;48.994;9.212;2023-08-17T02:15:03;10.27;;;7.30;;
15104;SDS011;7653;48.994;9.212;2023-08-17T02:17:29;9.07;;;7.30;;
15104;SDS011;7653;48.994;9.212;2023-08-17T02:19:55;8.20;;;7.17;;
15104;SDS011;7653;48.994;9.212;2023-08-17T02:22:20;11.07;;;7.83;;
15104;SDS011;7653;48.994;9.212;2023-08-17T02:24:46;7.27;;;6.57;;
15104;SDS011;7653;48.994;9.212;2023-08-17T02:27:11;8.37;;;7.20;;
15104;SDS011;7653;48.994;9.212;2023-08-17T02:29:37;7.40;;;6.70;;
15104;SDS011;7653;48.994;9.212;2023-08-17T02:32:04;10.23;;;7.23;;
15104;SDS011;7653;48.994;9.212;2023-08-17T02:34:29;7.97;;;7.17;;
15104;SDS011;7653;48.994;9.212;2023-08-17T02:36:55;7.77;;;6.93;;
15104;SDS011;7653;48.994;9.212;2023-08-17T02:39:21;8.63;;;7.10;;
15104;SDS011;7653;48.994;9.212;2023-08-17T02:41:46;9.37;;;7.30;;
15104;SDS011;7653;48.994;9.212;2023-08-17T02:44:14;8.03;;;7.13;;
15104;SDS011;7653;48.994;9.212;2023-08-17T02:46:40;10.10;;;6.93;;
15104;SDS011;7653;48.994;9.212;2023-08-17T02:49:05;7.67;;;6.87;;
15104;SDS011;7653;48.994;9.212;2023-08-17T02:51:31;11.40;;;6.77;;
15104;SDS011;7653;48.994;9.212;2023-08-17T02:53:57;8.77;;;6.70;;
15104;SDS011;7653;48.994;9.212;2023-08-17T02:56:22;8.93;;;7.00;;
15104;SDS011;7653;48.994;9.212;2023-08-17T02:58:48;7.47;;;6.63;;
15104;SDS011;7653;48.994;9.212;2023-08-17T03:01:14;7.70;;;7.00;;
15104;SDS011;7653;48.994;9.212;2023-08-17T03:03:39;7.33;;;6.53;;
15104;SDS011;7653;48.994;9.212;2023-08-17T03:06:05;7.40;;;6.70;;
15104;SDS011;7653;48.994;9.212;2023-08-17T03:08:31;8.47;;;6.90;;
15104;SDS011;7653;48.994;9.212;2023-08-17T03:10:57;7.47;;;6.70;;
15104;SDS011;7653;48.994;9.212;2023-08-17T03:13:23;7.13;;;6.43;;
15104;SDS011;7653;48.994;9.212;2023-08-17T03:15:48;10.03;;;6.60;;
15104;SDS011;7653;48.994;9.212;2023-08-17T03:18:14;7.07;;;6.40;;
15104;SDS011;7653;48.994;9.212;2023-08-17T03:20:39;7.73;;;6.90;;
15104;SDS011;7653;48.994;9.212;2023-08-17T03:23:05;7.13;;;6.23;;
15104;SDS011;7653;48.994;9.212;2023-08-17T03:25:32;8.53;;;6.63;;
15104;SDS011;7653;48.994;9.212;2023-08-17T03:27:58;7.07;;;6.30;;
15104;SDS011;7653;48.994;9.212;2023-08-17T03:30:24;8.27;;;7.47;;
15104;SDS011;7653;48.994;9.212;2023-08-17T03:32:49;8.10;;;7.30;;
15104;SDS011;7653;48.994;9.212;2023-08-17T03:35:15;8.93;;;8.13;;
15104;SDS011;7653;48.994;9.212;2023-08-17T03:37:41;8.43;;;7.63;;
15104;SDS011;7653;48.994;9.212;2023-08-17T03:40:06;8.00;;;7.20;;
15104;SDS011;7653;48.994;9.212;2023-08-17T03:42:32;7.80;;;7.00;;
15104;SDS011;7653;48.994;9.212;2023-08-17T03:44:58;9.83;;;7.60;;
15104;SDS011;7653;48.994;9.212;2023-08-17T03:47:23;8.67;;;7.17;;
15104;SDS011;7653;48.994;9.212;2023-08-17T03:49:49;9.10;;;7.73;;
15104;SDS011;7653;48.994;9.212;2023-08-17T03:52:15;9.10;;;7.50;;
15104;SDS011;7653;48.994;9.212;2023-08-17T03:54:40;9.27;;;7.47;;
15104;SDS011;7653;48.994;9.212;2023-08-17T03:57:06;10.20;;;7.43;;
15104;SDS011;7653;48.994;9.212;2023-08-17T03:59:32;9.33;;;7.33;;
15104;SDS011;7653;48.994;9.212;2023-08-17T04:01:57;8.57;;;6.90;;
15104;SDS011;7653;48.994;9.212;2023-08-17T04:04:23;9.30;;;7.20;;
15104;SDS011;7653;48.994;9.212;2023-08-17T04:06:49;7.33;;;6.53;;
15104;SDS011;7653;48.994;9.212;2023-08-17T04:09:14;8.57;;;6.43;;
15104;SDS011;7653;48.994;9.212;2023-08-17T04:11:40;7.70;;;6.13;;
15104;SDS011;7653;48.994;9.212;2023-08-17T04:14:05;7.77;;;6.57;;
15104;SDS011;7653;48.994;9.212;2023-08-17T04:16:31;7.67;;;6.13;;
15104;SDS011;7653;48.994;9.212;2023-08-17T04:18:58;6.83;;;6.13;;
15104;SDS011;7653;48.994;9.212;2023-08-17T04:21:23;8.43;;;6.40;;
15104;SDS011;7653;48.994;9.212;2023-08-17T04:23:49;9.77;;;6.30;;
15104;SDS011;7653;48.994;9.212;2023-08-17T04:26:15;11.63;;;6.73;;
15104;SDS011;7653;48.994;9.212;2023-08-17T04:28:40;8.47;;;6.07;;
15104;SDS011;7653;48.994;9.212;2023-08-17T04:31:06;6.87;;;6.00;;
15104;SDS011;7653;48.994;9.212;2023-08-17T04:33:31;6.53;;;5.93;;
15104;SDS011;7653;48.994;9.212;2023-08-17T04:35:57;9.00;;;7.07;;
15104;SDS011;7653;48.994;9.212;2023-08-17T04:38:24;6.90;;;6.10;;
15104;SDS011;7653;48.994;9.212;2023-08-17T04:40:50;7.80;;;6.27;;
15104;SDS011;7653;48.994;9.212;2023-08-17T04:43:16;6.53;;;5.70;;
15104;SDS011;7653;48.994;9.212;2023-08-17T04:45:41;6.50;;;5.20;;
15104;SDS011;7653;48.994;9.212;2023-08-17T04:48:07;6.30;;;5.47;;
15104;SDS011;7653;48.994;9.212;2023-08-17T04:50:33;9.37;;;5.37;;
15104;SDS011;7653;48.994;9.212;2023-08-17T04:52:59;8.60;;;5.20;;
15104;SDS011;7653;48.994;9.212;2023-08-17T04:55:24;6.57;;;5.83;;
15104;SDS011;7653;48.994;9.212;2023-08-17T04:57:50;7.73;;;5.67;;
15104;SDS011;7653;48.994;9.212;2023-08-17T05:00:16;8.67;;;5.80;;
15104;SDS011;7653;48.994;9.212;2023-08-17T05:02:41;9.27;;;6.07;;
15104;SDS011;7653;48.994;9.212;2023-08-17T05:05:09;8.17;;;6.43;;
15104;SDS011;7653;48.994;9.212;2023-08-17T05:07:35;9.30;;;6.20;;
15104;SDS011;7653;48.994;9.212;2023-08-17T05:10:01;8.10;;;6.07;;
15104;SDS011;7653;48.994;9.212;2023-08-17T05:12:27;9.57;;;6.40;;
15104;SDS011;7653;48.994;9.212;2023-08-17T05:14:53;7.63;;;6.83;;
15104;SDS011;7653;48.994;9.212;2023-08-17T05:17:18;9.17;;;6.53;;
15104;SDS011;7653;48.994;9.212;2023-08-17T05:19:44;9.23;;;6.90;;
15104;SDS011;7653;48.994;9.212;2023-08-17T05:22:10;8.77;;;6.43;;
15104;SDS011;7653;48.994;9.212;2023-08-17T05:24:37;10.50;;;7.00;;
15104;SDS011;7653;48.994;9.212;2023-08-17T05:27:03;10.40;;;7.10;;
15104;SDS011;7653;48.994;9.212;2023-08-17T05:29:29;12.03;;;7.30;;
15104;SDS011;7653;48.994;9.212;2023-08-17T05:31:57;12.77;;;9.47;;
15104;SDS011;7653;48.994;9.212;2023-08-17T05:34:23;11.40;;;8.30;;
15104;SDS011;7653;48.994;9.212;2023-08-17T05:36:48;14.93;;;7.27;;
15104;SDS011;7653;48.994;9.212;2023-08-17T05:39:14;9.93;;;7.13;;
15104;SDS011;7653;48.994;9.212;2023-08-17T05:41:40;11.43;;;6.93;;
15104;SDS011;7653;48.994;9.212;2023-08-17T05:44:05;8.57;;;6.90;;
15104;SDS011;7653;48.994;9.212;2023-08-17T05:46:34;12.67;;;6.50;;
15104;SDS011;7653;48.994;9.212;2023-08-17T05:49:01;12.57;;;7.33;;
15104;SDS011;7653;48.994;9.212;2023-08-17T05:51:27;10.37;;;7.30;;
15104;SDS011;7653;48.994;9.212;2023-08-17T05:53:53;11.20;;;6.80;;
15104;SDS011;7653;48.994;9.212;2023-08-17T05:56:19;16.40;;;7.70;;
15104;SDS011;7653;48.994;9.212;2023-08-17T05:58:44;11.13;;;7.57;;
15104;SDS011;7653;48.994;9.212;2023-08-17T06:01:10;13.17;;;7.70;;
15104;SDS011;7653;48.994;9.212;2023-08-17T06:03:36;14.20;;;7.40;;
15104;SDS011;7653;48.994;9.212;2023-08-17T06:06:05;13.13;;;7.37;;
15104;SDS011;7653;48.994;9.212;2023-08-17T06:08:31;15.33;;;10.73;;
15104;SDS011;7653;48.994;9.212;2023-08-17T06:10:57;16.60;;;13.00;;
15104;SDS011;7653;48.994;9.212;2023-08-17T06:13:22;14.77;;;11.90;;
15104;SDS011;7653;48.994;9.212;2023-08-17T06:15:48;14.37;;;11.50;;
15104;SDS011;7653;48.994;9.212;2023-08-17T06:18:14;12.87;;;10.47;;
15104;SDS011;7653;48.994;9.212;2023-08-17T06:20:40;15.80;;;11.70;;
15104;SDS011;7653;48.994;9.212;2023-08-17T06:23:06;15.13;;;11.90;;
15104;SDS011;7653;48.994;9.212;2023-08-17T06:25:31;16.77;;;12.43;;
15104;SDS011;7653;48.994;9.212;2023-08-17T06:27:57;14.47;;;11.83;;
15104;SDS011;7653;48.994;9.212;2023-08-17T06:30:23;16.13;;;10.47;;
15104;SDS011;7653;48.994;9.212;2023-08-17T06:32:52;11.60;;;10.00;;
15104;SDS011;7653;48.994;9.212;2023-08-17T06:35:17;21.07;;;11.50;;
15104;SDS011;7653;48.994;9.212;2023-08-17T06:37:43;15.77;;;10.83;;
15104;SDS011;7653;48.994;9.212;2023-08-17T06:40:09;18.20;;;11.37;;
15104;SDS011;7653;48.994;9.212;2023-08-17T06:42:34;15.80;;;10.57;;
15104;SDS011;7653;48.994;9.212;2023-08-17T06:45:00;12.40;;;9.90;;
15104;SDS011;7653;48.994;9.212;2023-08-17T06:47:26;12.33;;;10.40;;
15104;SDS011;7653;48.994;9.212;2023-08-17T06:49:52;12.83;;;10.33;;
15104;SDS011;7653;48.994;9.212;2023-08-17T06:52:18;11.53;;;10.33;;
15104;SDS011;7653;48.994;9.212;2023-08-17T06:54:43;14.70;;;11.07;;
15104;SDS011;7653;48.994;9.212;2023-08-17T06:57:09;10.53;;;9.43;;
15104;SDS011;7653;48.994;9.212;2023-08-17T06:59:34;13.37;;;11.20;;
15104;SDS011;7653;48.994;9.212;2023-08-17T07:02:00;11.77;;;10.43;;
15104;SDS011;7653;48.994;9.212;2023-08-17T07:04:26;14.17;;;10.43;;
15104;SDS011;7653;48.994;9.212;2023-08-17T07:06:52;12.80;;;11.13;;
15104;SDS011;7653;48.994;9.212;2023-08-17T07:09:17;14.37;;;10.83;;
15104;SDS011;7653;48.994;9.212;2023-08-17T07:11:43;13.07;;;10.80;;
15104;SDS011;7653;48.994;9.212;2023-08-17T07:14:09;13.87;;;10.53;;
15104;SDS011;7653;48.994;9.212;2023-08-17T07:16:35;11.63;;;10.00;;
15104;SDS011;7653;48.994;9.212;2023-08-17T07:19:00;12.20;;;10.30;;
15104;SDS011;7653;48.994;9.212;2023-08-17T07:21:30;13.77;;;9.63;;
15104;SDS011;7653;48.994;9.212;2023-08-17T07:23:56;11.70;;;10.50;;
15104;SDS011;7653;48.994;9.212;2023-08-17T07:26:22;13.33;;;10.27;;
15104;SDS011;7653;48.994;9.212;2023-08-17T07:28:48;12.70;;;9.87;;
15104;SDS011;7653;48.994;9.212;2023-08-17T07:31:14;12.80;;;9.10;;
15104;SDS011;7653;48.994;9.212;2023-08-17T07:33:40;12.47;;;9.50;;
15104;SDS011;7653;48.994;9.212;2023-08-17T07:36:06;12.30;;;10.13;;
15104;SDS011;7653;48.994;9.212;2023-08-17T07:38:31;14.43;;;10.30;;
15104;SDS011;7653;48.994;9.212;2023-08-17T07:40:57;14.60;;;9.70;;
15104;SDS011;7653;48.994;9.212;2023-08-17T07:43:23;13.00;;;10.07;;
15104;SDS011;7653;48.994;9.212;2023-08-17T07:45:55;13.27;;;10.33;;
15104;SDS011;7653;48.994;9.212;2023-08-17T07:48:21;12.17;;;10.40;;
15104;SDS011;7653;48.994;9.212;2023-08-17T07:50:48;12.90;;;10.23;;
15104;SDS011;7653;48.994;9.212;2023-08-17T07:53:17;14.30;;;9.83;;
15104;SDS011;7653;48.994;9.212;2023-08-17T07:55:46;13.50;;;9.23;;
15104;SDS011;7653;48.994;9.212;2023-08-17T07:58:12;14.07;;;9.70;;
15104;SDS011;7653;48.994;9.212;2023-08-17T08:00:37;12.90;;;9.33;;
15104;SDS011;7653;48.994;9.212;2023-08-17T08:03:03;18.43;;;10.17;;
15104;SDS011;7653;48.994;9.212;2023-08-17T08:05:29;13.30;;;9.10;;
15104;SDS011;7653;48.994;9.212;2023-08-17T08:07:54;13.50;;;10.17;;
15104;SDS011;7653;48.994;9.212;2023-08-17T08:10:20;16.67;;;10.17;;
15104;SDS011;7653;48.994;9.212;2023-08-17T08:12:46;15.77;;;11.07;;
15104;SDS011;7653;48.994;9.212;2023-08-17T08:15:11;15.20;;;10.33;;
15104;SDS011;7653;48.994;9.212;2023-08-17T08:17:37;14.37;;;10.73;;
15104;SDS011;7653;48.994;9.212;2023-08-17T08:20:03;12.55;;;10.65;;
15104;SDS011;7653;48.994;9.212;2023-08-17T08:22:29;13.93;;;9.70;;
15104;SDS011;7653;48.994;9.212;2023-08-17T08:24:55;16.57;;;11.43;;
15104;SDS011;7653;48.994;9.212;2023-08-17T08:27:21;14.10;;;10.47;;
15104;SDS011;7653;48.994;9.212;2023-08-17T08:29:46;12.57;;;9.57;;
15104;SDS011;7653;48.994;9.212;2023-08-17T08:32:12;15.15;;;10.00;;
15104;SDS011;7653;48.994;9.212;2023-08-17T08:34:38;12.77;;;10.15;;
15104;SDS011;7653;48.994;9.212;2023-08-17T08:37:03;13.10;;;9.60;;
15104;SDS011;7653;48.994;9.212;2023-08-17T08:39:29;13.75;;;10.63;;
15104;SDS011;7653;48.994;9.212;2023-08-17T08:41:55;14.43;;;10.90;;
15104;SDS011;7653;48.994;9.212;2023-08-17T08:44:21;14.03;;;10.23;;
15104;SDS011;7653;48.994;9.212;2023-08-17T08:46:48;16.87;;;11.53;;
15104;SDS011;7653;48.994;9.212;2023-08-17T08:49:16;13.80;;;10.30;;
15104;SDS011;7653;48.994;9.212;2023-08-17T08:51:46;13.40;;;10.03;;
15104;SDS011;7653;48.994;9.212;2023-08-17T08:54:17;11.53;;;10.03;;
15104;SDS011;7653;48.994;9.212;2023-08-17T08:56:47;14.23;;;9.93;;
15104;SDS011;7653;48.994;9.212;2023-08-17T08:59:26;12.63;;;10.32;;
15104;SDS011;7653;48.994;9.212;2023-08-17T09:01:53;17.17;;;11.57;;
15104;SDS011;7653;48.994;9.212;2023-08-17T09:04:22;17.07;;;11.07;;
15104;SDS011;7653;48.994;9.212;2023-08-17T09:06:48;13.53;;;10.80;;
15104;SDS011;7653;48.994;9.212;2023-08-17T09:09:16;12.27;;;10.10;;
15104;SDS011;7653;48.994;9.212;2023-08-17T09:11:43;15.67;;;10.50;;
15104;SDS011;7653;48.994;9.212;2023-08-17T09:14:09;12.83;;;9.90;;
15104;SDS011;7653;48.994;9.212;2023-08-17T09:16:34;14.13;;;10.03;;
15104;SDS011;7653;48.994;9.212;2023-08-17T09:19:00;14.07;;;11.70;;
15104;SDS011;7653;48.994;9.212;2023-08-17T09:21:26;12.83;;;10.23;;
15104;SDS011;7653;48.994;9.212;2023-08-17T09:23:57;11.23;;;9.80;;
15104;SDS011;7653;48.994;9.212;2023-08-17T09:26:23;15.57;;;10.43;;
15104;SDS011;7653;48.994;9.212;2023-08-17T09:28:52;14.55;;;9.93;;
15104;SDS011;7653;48.994;9.212;2023-08-17T09:31:23;13.07;;;9.57;;
15104;SDS011;7653;48.994;9.212;2023-08-17T09:33:52;15.75;;;10.10;;
15104;SDS011;7653;48.994;9.212;2023-08-17T09:36:21;13.73;;;10.38;;
15104;SDS011;7653;48.994;9.212;2023-08-17T09:38:48;12.10;;;9.87;;
15104;SDS011;7653;48.994;9.212;2023-08-17T09:41:17;14.30;;;10.05;;
15104;SDS011;7653;48.994;9.212;2023-08-17T09:43:44;12.20;;;10.23;;
15104;SDS011;7653;48.994;9.212;2023-08-17T09:46:11;15.23;;;10.20;;
15104;SDS011;7653;48.994;9.212;2023-08-17T09:48:36;10.70;;;9.60;;
15104;SDS011;7653;48.994;9.212;2023-08-17T09:51:02;10.80;;;9.07;;
15104;SDS011;7653;48.994;9.212;2023-08-17T09:53:33;10.88;;;9.00;;
15104;SDS011;7653;48.994;9.212;2023-08-17T09:56:01;12.77;;;8.35;;
15104;SDS011;7653;48.994;9.212;2023-08-17T09:58:27;12.02;;;8.07;;
15104;SDS011;7653;48.994;9.212;2023-08-17T10:00:52;12.50;;;8.27;;
15104;SDS011;7653;48.994;9.212;2023-08-17T10:03:20;13.23;;;8.20;;
15104;SDS011;7653;48.994;9.212;2023-08-17T10:05:48;16.33;;;10.25;;
15104;SDS011;7653;48.994;9.212;2023-08-17T10:08:33;8.90;;;8.00;;
15104;SDS011;7653;48.994;9.212;2023-08-17T10:11:08;9.48;;;7.75;;
15104;SDS011;7653;48.994;9.212;2023-08-17T10:18:50;11.10;;;7.30;;
15104;SDS011;7653;48.994;9.212;2023-08-17T10:21:37;14.00;;;8.00;;
15104;SDS011;7653;48.994;9.212;2023-08-17T10:24:15;15.43;;;7.95;;
15104;SDS011;7653;48.994;9.212;2023-08-17T10:26:42;13.68;;;8.38;;
15104;SDS011;7653;48.994;9.212;2023-08-17T10:29:09;11.57;;;8.00;;
15104;SDS011;7653;48.994;9.212;2023-08-17T10:31:37;10.70;;;7.38;;
15104;SDS011;7653;48.994;9.212;2023-08-17T10:34:03;10.02;;;8.15;;
15104;SDS011;7653;48.994;9.212;2023-08-17T10:36:30;10.00;;;6.88;;
15104;SDS011;7653;48.994;9.212;2023-08-17T10:41:47;9.98;;;7.78;;
15104;SDS011;7653;48.994;9.212;2023-08-17T10:44:14;17.98;;;8.30;;
15104;SDS011;7653;48.994;9.212;2023-08-17T10:46:40;11.35;;;8.73;;
15104;SDS011;7653;48.994;9.212;2023-08-17T10:49:23;10.82;;;7.47;;
15104;SDS011;7653;48.994;9.212;2023-08-17T10:52:03;10.98;;;7.63;;
15104;SDS011;7653;48.994;9.212;2023-08-17T10:54:36;11.63;;;7.35;;
15104;SDS011;7653;48.994;9.212;2023-08-17T10:57:50;9.32;;;7.38;;
15104;SDS011;7653;48.994;9.212;2023-08-17T11:00:13;13.57;;;6.82;;
15104;SDS011;7653;48.994;9.212;2023-08-17T11:05:43;8.10;;;7.30;;
15104;SDS011;7653;48.994;9.212;2023-08-17T11:08:27;8.45;;;6.57;;
15104;SDS011;7653;48.994;9.212;2023-08-17T11:11:03;7.45;;;6.65;;
15104;SDS011;7653;48.994;9.212;2023-08-17T11:13:29;10.60;;;7.45;;
15104;SDS011;7653;48.994;9.212;2023-08-17T11:15:57;7.97;;;6.82;;
15104;SDS011;7653;48.994;9.212;2023-08-17T11:18:24;10.57;;;6.97;;
15104;SDS011;7653;48.994;9.212;2023-08-17T11:20:50;9.50;;;7.03;;
15104;SDS011;7653;48.994;9.212;2023-08-17T11:23:16;8.95;;;6.35;;
15104;SDS011;7653;48.994;9.212;2023-08-17T11:25:42;9.20;;;7.05;;
15104;SDS011;7653;48.994;9.212;2023-08-17T11:28:08;8.80;;;6.72;;
15104;SDS011;7653;48.994;9.212;2023-08-17T11:30:34;11.05;;;7.65;;
15104;SDS011;7653;48.994;9.212;2023-08-17T11:33:04;7.45;;;6.60;;
15104;SDS011;7653;48.994;9.212;2023-08-17T11:35:30;8.48;;;7.13;;
15104;SDS011;7653;48.994;9.212;2023-08-17T11:37:56;7.85;;;6.38;;
15104;SDS011;7653;48.994;9.212;2023-08-17T11:40:22;8.20;;;7.35;;
15104;SDS011;7653;48.994;9.212;2023-08-17T11:42:48;8.90;;;6.85;;
15104;SDS011;7653;48.994;9.212;2023-08-17T11:45:14;7.53;;;6.38;;
15104;SDS011;7653;48.994;9.212;2023-08-17T11:47:40;7.53;;;6.03;;
15104;SDS011;7653;48.994;9.212;2023-08-17T11:50:09;8.02;;;6.00;;
15104;SDS011;7653;48.994;9.212;2023-08-17T11:52:36;6.97;;;6.35;;
15104;SDS011;7653;48.994;9.212;2023-08-17T11:55:02;6.43;;;5.80;;
15104;SDS011;7653;48.994;9.212;2023-08-17T11:57:30;6.03;;;5.45;;
15104;SDS011;7653;48.994;9.212;2023-08-17T11:59:57;5.80;;;5.20;;
15104;SDS011;7653;48.994;9.212;2023-08-17T12:02:24;6.05;;;5.45;;
15104;SDS011;7653;48.994;9.212;2023-08-17T12:04:50;7.05;;;5.75;;
15104;SDS011;7653;48.994;9.212;2023-08-17T12:07:17;5.63;;;5.13;;
15104;SDS011;7653;48.994;9.212;2023-08-17T12:09:43;5.95;;;5.35;;
15104;SDS011;7653;48.994;9.212;2023-08-17T12:12:10;9.15;;;5.20;;
15104;SDS011;7653;48.994;9.212;2023-08-17T12:14:36;5.75;;;5.25;;
15104;SDS011;7653;48.994;9.212;2023-08-17T12:17:05;5.72;;;5.00;;
15104;SDS011;7653;48.994;9.212;2023-08-17T12:19:31;6.50;;;5.50;;
15104;SDS011;7653;48.994;9.212;2023-08-17T12:21:56;5.68;;;4.85;;
15104;SDS011;7653;48.994;9.212;2023-08-17T12:24:25;6.38;;;4.80;;
15104;SDS011;7653;48.994;9.212;2023-08-17T12:26:51;5.45;;;4.88;;
15104;SDS011;7653;48.994;9.212;2023-08-17T12:29:17;5.22;;;4.82;;
15104;SDS011;7653;48.994;9.212;2023-08-17T12:31:43;6.32;;;5.00;;
15104;SDS011;7653;48.994;9.212;2023-08-17T12:34:09;4.97;;;4.50;;
15104;SDS011;7653;48.994;9.212;2023-08-17T12:36:35;5.10;;;4.57;;
15104;SDS011;7653;48.994;9.212;2023-08-17T12:39:02;6.53;;;4.80;;
15104;SDS011;7653;48.994;9.212;2023-08-17T12:41:29;5.47;;;4.57;;
15104;SDS011;7653;48.994;9.212;2023-08-17T12:43:54;5.75;;;4.70;;
15104;SDS011;7653;48.994;9.212;2023-08-17T12:46:23;7.63;;;5.20;;
15104;SDS011;7653;48.994;9.212;2023-08-17T12:48:49;6.00;;;5.05;;
15104;SDS011;7653;48.994;9.212;2023-08-17T12:51:14;6.65;;;5.43;;
15104;SDS011;7653;48.994;9.212;2023-08-17T12:53:40;6.63;;;5.28;;
15104;SDS011;7653;48.994;9.212;2023-08-17T12:56:06;5.75;;;5.22;;
15104;SDS011;7653;48.994;9.212;2023-08-17T12:58:32;5.88;;;5.28;;
15104;SDS011;7653;48.994;9.212;2023-08-17T13:00:57;6.90;;;5.50;;
15104;SDS011;7653;48.994;9.212;2023-08-17T13:03:23;5.10;;;4.57;;
15104;SDS011;7653;48.994;9.212;2023-08-17T13:05:49;5.68;;;5.03;;
15104;SDS011;7653;48.994;9.212;2023-08-17T13:08:15;5.30;;;4.75;;
15104;SDS011;7653;48.994;9.212;2023-08-17T13:10:40;6.30;;;5.40;;
15104;SDS011;7653;48.994;9.212;2023-08-17T13:13:06;5.47;;;4.97;;
15104;SDS011;7653;48.994;9.212;2023-08-17T13:15:32;6.22;;;5.60;;
15104;SDS011;7653;48.994;9.212;2023-08-17T13:17:59;7.10;;;6.40;;
15104;SDS011;7653;48.994;9.212;2023-08-17T13:20:25;8.13;;;6.60;;
15104;SDS011;7653;48.994;9.212;2023-08-17T13:22:50;8.05;;;6.50;;
15104;SDS011;7653;48.994;9.212;2023-08-17T13:25:16;8.77;;;6.57;;
15104;SDS011;7653;48.994;9.212;2023-08-17T13:27:42;7.53;;;6.82;;
15104;SDS011;7653;48.994;9.212;2023-08-17T13:30:08;8.57;;;6.68;;
15104;SDS011;7653;48.994;9.212;2023-08-17T13:32:34;7.70;;;6.85;;
15104;SDS011;7653;48.994;9.212;2023-08-17T13:35:01;7.57;;;6.75;;
15104;SDS011;7653;48.994;9.212;2023-08-17T13:37:30;8.05;;;5.78;;
15104;SDS011;7653;48.994;9.212;2023-08-17T13:39:56;6.45;;;5.85;;
15104;SDS011;7653;48.994;9.212;2023-08-17T13:42:23;7.57;;;6.22;;
15104;SDS011;7653;48.994;9.212;2023-08-17T13:44:48;6.93;;;5.97;;
15104;SDS011;7653;48.994;9.212;2023-08-17T13:47:14;5.60;;;5.10;;
15104;SDS011;7653;48.994;9.212;2023-08-17T13:49:40;6.28;;;5.65;;
15104;SDS011;7653;48.994;9.212;2023-08-17T13:52:05;6.50;;;5.82;;
15104;SDS011;7653;48.994;9.212;2023-08-17T13:54:31;6.68;;;6.03;;
15104;SDS011;7653;48.994;9.212;2023-08-17T13:56:56;6.32;;;5.65;;
15104;SDS011;7653;48.994;9.212;2023-08-17T13:59:22;6.93;;;5.70;;
15104;SDS011;7653;48.994;9.212;2023-08-17T14:01:48;6.97;;;6.28;;
15104;SDS011;7653;48.994;9.212;2023-08-17T14:04:13;7.28;;;6.45;;
15104;SDS011;7653;48.994;9.212;2023-08-17T14:06:40;7.40;;;6.60;;
15104;SDS011;7653;48.994;9.212;2023-08-17T14:09:06;7.50;;;6.78;;
15104;SDS011;7653;48.994;9.212;2023-08-17T14:11:32;7.67;;;6.77;;
15104;SDS011;7653;48.994;9.212;2023-08-17T14:13:57;8.43;;;7.53;;
15104;SDS011;7653;48.994;9.212;2023-08-17T14:16:23;9.38;;;7.68;;
15104;SDS011;7653;48.994;9.212;2023-08-17T14:18:49;8.23;;;7.53;;
15104;SDS011;7653;48.994;9.212;2023-08-17T14:21:15;8.55;;;7.63;;
15104;SDS011;7653;48.994;9.212;2023-08-17T14:23:41;8.80;;;7.90;;
15104;SDS011;7653;48.994;9.212;2023-08-17T14:26:06;11.82;;;8.00;;
15104;SDS011;7653;48.994;9.212;2023-08-17T14:28:32;10.82;;;7.90;;
15104;SDS011;7653;48.994;9.212;2023-08-17T14:30:58;8.10;;;7.32;;
15104;SDS011;7653;48.994;9.212;2023-08-17T14:33:23;8.27;;;7.40;;
15104;SDS011;7653;48.994;9.212;2023-08-17T14:35:49;8.48;;;7.35;;
15104;SDS011;7653;48.994;9.212;2023-08-17T14:38:15;7.40;;;6.70;;
15104;SDS011;7653;48.994;9.212;2023-08-17T14:40:44;7.35;;;6.50;;
15104;SDS011;7653;48.994;9.212;2023-08-17T14:43:11;7.90;;;7.20;;
15104;SDS011;7653;48.994;9.212;2023-08-17T14:45:39;8.05;;;6.68;;
15104;SDS011;7653;48.994;9.212;2023-08-17T14:48:08;7.28;;;6.60;;
15104;SDS011;7653;48.994;9.212;2023-08-17T14:50:34;8.45;;;6.68;;
15104;SDS011;7653;48.994;9.212;2023-08-17T14:53:01;8.18;;;6.90;;
15104;SDS011;7653;48.994;9.212;2023-08-17T14:55:30;6.43;;;5.82;;
15104;SDS011;7653;48.994;9.212;2023-08-17T14:57:56;5.90;;;5.30;;
15104;SDS011;7653;48.994;9.212;2023-08-17T15:00:23;7.47;;;6.40;;
15104;SDS011;7653;48.994;9.212;2023-08-17T15:02:49;6.45;;;5.50;;
15104;SDS011;7653;48.994;9.212;2023-08-17T15:05:15;6.82;;;6.10;;
15104;SDS011;7653;48.994;9.212;2023-08-17T15:07:41;7.45;;;5.78;;